createdAt,value
2023-05-12T00:04:53.160Z,34.94
2023-05-12T00:09:54.580Z,35.32
2023-05-12T00:14:56.085Z,35.30
2023-05-12T00:19:57.459Z,35.49
2023-05-12T00:24:58.835Z,35.33
2023-05-12T00:30:00.265Z,35.57
2023-05-12T00:35:01.915Z,35.76
2023-05-12T00:40:03.481Z,35.92
2023-05-12T00:45:05.708Z,35.77
2023-05-12T00:50:08.245Z,35.87
2023-05-12T00:55:09.628Z,35.84
2023-05-12T01:00:11.674Z,35.78
2023-05-12T01:05:13.090Z,35.79
2023-05-12T01:10:21.552Z,35.85
2023-05-12T01:15:23.201Z,36.11
2023-05-12T01:20:25.857Z,35.95
2023-05-12T01:25:27.398Z,36.06
2023-05-12T01:30:28.809Z,36.15
2023-05-12T01:35:30.178Z,36.20
2023-05-12T01:40:31.574Z,36.24
2023-05-12T01:45:33.522Z,36.36
2023-05-12T01:50:34.910Z,36.35
2023-05-12T01:55:36.508Z,36.67
2023-05-12T02:00:37.880Z,36.81
2023-05-12T02:05:39.246Z,36.76
2023-05-12T02:10:40.763Z,37.00
2023-05-12T02:15:42.164Z,36.96
2023-05-12T02:20:43.556Z,37.08
2023-05-12T02:25:44.934Z,36.87
2023-05-12T02:30:48.484Z,37.06
2023-05-12T02:35:49.886Z,37.18
2023-05-12T02:40:51.310Z,37.55
2023-05-12T02:45:52.760Z,37.43
2023-05-12T02:50:54.229Z,37.44
2023-05-12T02:55:55.629Z,37.67
2023-05-12T03:01:09.360Z,37.60
2023-05-12T03:06:12.425Z,37.48
2023-05-12T03:11:14.153Z,37.69
2023-05-12T03:16:18.907Z,38.10
2023-05-12T03:21:21.036Z,37.84
2023-05-12T03:26:22.483Z,37.66
2023-05-12T03:31:24.039Z,37.91
2023-05-12T03:36:25.590Z,38.33
2023-05-12T03:41:27.275Z,38.01
2023-05-12T03:46:28.889Z,38.01
2023-05-12T03:51:30.952Z,38.16
2023-05-12T03:56:32.491Z,38.28
2023-05-12T04:01:33.908Z,38.43
2023-05-12T04:06:36.782Z,38.43
2023-05-12T04:11:38.208Z,38.43
2023-05-12T04:16:40.615Z,38.71
2023-05-12T04:21:42.093Z,38.69
2023-05-12T04:26:43.485Z,38.55
2023-05-12T04:31:44.919Z,38.56
2023-05-12T04:36:46.328Z,38.73
2023-05-12T04:41:47.696Z,38.68
2023-05-12T04:46:53.192Z,38.42
2023-05-12T04:51:54.579Z,38.57
2023-05-12T04:56:56.033Z,38.61
2023-05-12T05:01:57.539Z,38.46
2023-05-12T05:06:58.908Z,38.31
2023-05-12T05:12:00.483Z,37.68
2023-05-12T05:17:02.228Z,37.41
2023-05-12T05:22:04.866Z,37.23
2023-05-12T05:27:06.278Z,36.74
2023-05-12T05:32:08.244Z,36.60
2023-05-12T05:37:09.661Z,36.56
2023-05-12T05:42:11.041Z,36.50
2023-05-12T05:47:12.458Z,36.25
2023-05-12T05:52:13.830Z,36.22
2023-05-12T05:57:15.194Z,36.18
2023-05-12T06:02:16.640Z,36.10
2023-05-12T06:07:18.038Z,36.09
2023-05-12T06:12:19.729Z,35.96
2023-05-12T06:17:21.746Z,35.93
2023-05-12T06:22:23.224Z,35.53
2023-05-12T06:27:24.628Z,35.72
2023-05-12T06:32:26.338Z,36.58
2023-05-12T06:37:27.729Z,37.22
2023-05-12T06:42:29.111Z,37.13
2023-05-12T06:47:30.507Z,37.08
2023-05-12T06:52:31.976Z,37.10
2023-05-12T06:57:33.345Z,36.99
2023-05-12T07:02:34.911Z,36.30
2023-05-12T07:07:36.317Z,36.25
2023-05-12T07:12:38.366Z,36.00
2023-05-12T07:17:39.774Z,35.51
2023-05-12T07:22:41.159Z,35.40
2023-05-12T07:27:42.530Z,35.13
2023-05-12T07:32:43.971Z,35.16
2023-05-12T07:37:45.410Z,34.97
2023-05-12T07:42:46.782Z,34.02
2023-05-12T07:47:48.477Z,33.88
2023-05-12T07:52:51.354Z,33.69
2023-05-12T07:57:52.766Z,33.82
2023-05-12T08:02:54.476Z,34.06
2023-05-12T08:07:56.048Z,33.28
2023-05-12T08:12:57.718Z,33.03
2023-05-12T08:18:01.244Z,33.14
2023-05-12T08:23:02.675Z,32.88
2023-05-12T08:28:04.567Z,33.06
2023-05-12T08:33:12.710Z,32.73
2023-05-12T08:38:14.134Z,32.85
2023-05-12T08:43:25.504Z,32.50
2023-05-12T08:48:27.800Z,32.44
2023-05-12T08:53:29.226Z,32.55
2023-05-12T08:58:40.480Z,32.32
2023-05-12T09:03:42.856Z,32.35
2023-05-12T09:08:44.284Z,32.29
2023-05-12T09:14:09.224Z,31.87
2023-05-12T09:19:10.712Z,31.99
2023-05-12T09:24:12.222Z,31.79
2023-05-12T09:29:20.803Z,31.11
2023-05-12T09:34:33.286Z,30.90
2023-05-12T09:39:34.792Z,31.15
2023-05-12T09:44:36.379Z,30.75
2023-05-12T09:49:38.080Z,30.83
2023-05-12T09:54:39.487Z,31.05
2023-05-12T09:59:43.604Z,31.32
2023-05-12T10:04:49.431Z,31.19
2023-05-12T10:09:50.841Z,30.59
2023-05-12T10:14:52.251Z,30.14
2023-05-12T10:19:53.736Z,29.70
2023-05-12T10:24:55.115Z,28.98
2023-05-12T10:29:56.500Z,29.47
2023-05-12T10:35:07.564Z,29.45
2023-05-12T10:40:10.931Z,29.55
2023-05-12T10:45:20.141Z,29.16
2023-05-12T10:50:28.280Z,29.47
2023-05-12T10:55:31.045Z,29.50
2023-05-12T11:00:33.075Z,29.67
2023-05-12T11:05:35.442Z,29.78
2023-05-12T11:10:36.987Z,29.75
2023-05-12T11:15:38.739Z,29.45
2023-05-12T11:20:40.154Z,29.55
2023-05-12T11:25:44.531Z,29.54
2023-05-12T11:30:54.729Z,29.47
2023-05-12T11:35:56.962Z,29.45
2023-05-12T11:40:58.567Z,29.69
2023-05-12T11:46:00.294Z,29.79
2023-05-12T11:51:02.283Z,30.06
2023-05-12T11:56:03.744Z,30.49
2023-05-12T12:01:11.817Z,30.60
2023-05-12T12:06:13.198Z,30.71
2023-05-12T12:11:14.582Z,30.82
2023-05-12T12:16:16.162Z,31.22
2023-05-12T12:21:19.002Z,31.16
2023-05-12T12:26:21.419Z,31.18
2023-05-12T12:31:22.832Z,30.85
2023-05-12T12:36:24.232Z,31.12
2023-05-12T12:41:25.772Z,31.38
2023-05-12T12:46:27.172Z,32.03
2023-05-12T12:51:42.096Z,32.10
2023-05-12T12:56:47.103Z,32.20
2023-05-12T13:01:48.503Z,32.11
2023-05-12T13:06:49.901Z,31.88
2023-05-12T13:11:51.271Z,31.65
2023-05-12T13:16:55.248Z,31.15
2023-05-12T13:21:56.695Z,31.02
2023-05-12T13:26:58.123Z,31.30
2023-05-12T13:31:59.562Z,31.63
2023-05-12T13:37:01.145Z,31.73
2023-05-12T13:42:03.088Z,31.70
2023-05-12T13:47:07.648Z,31.83
2023-05-12T13:52:09.020Z,31.52
2023-05-12T13:57:10.425Z,31.23
2023-05-12T14:02:13.663Z,31.47
2023-05-12T14:07:15.219Z,31.57
2023-05-12T14:12:16.944Z,31.78
2023-05-12T14:17:18.604Z,31.92
2023-05-12T14:22:26.387Z,31.93
2023-05-12T14:27:28.891Z,32.16
2023-05-12T14:32:30.342Z,32.29
2023-05-12T14:37:32.607Z,31.90
2023-05-12T14:42:34.003Z,31.59
2023-05-12T14:47:35.403Z,32.46
2023-05-12T14:52:38.415Z,32.33
2023-05-12T14:57:43.420Z,32.13
2023-05-12T15:02:45.088Z,32.41
2023-05-12T15:07:46.544Z,33.80
2023-05-12T15:12:47.953Z,34.07
2023-05-12T15:17:49.474Z,34.03
2023-05-12T15:22:52.136Z,33.99
2023-05-12T15:27:53.512Z,33.99
2023-05-12T15:32:55.011Z,34.17
2023-05-12T15:37:56.408Z,33.90
2023-05-12T15:42:57.857Z,33.59
2023-05-12T15:47:59.342Z,33.38
2023-05-12T15:53:00.807Z,33.09
2023-05-12T15:58:03.436Z,33.25
2023-05-12T16:03:05.011Z,33.37
2023-05-12T16:08:06.488Z,33.26
2023-05-12T16:13:07.877Z,33.27
2023-05-12T16:18:11.363Z,33.75
2023-05-12T16:23:13.102Z,33.89
2023-05-12T16:28:14.577Z,33.99
2023-05-12T16:33:15.984Z,33.92
2023-05-12T16:38:17.367Z,33.89
2023-05-12T16:43:18.845Z,33.78
2023-05-12T16:48:20.248Z,33.94
2023-05-12T16:53:21.889Z,33.83
2023-05-12T16:58:23.428Z,34.41
2023-05-12T17:03:24.854Z,34.72
2023-05-12T17:08:26.297Z,34.75
2023-05-12T17:13:27.674Z,35.42
2023-05-12T17:18:29.827Z,35.58
2023-05-12T17:23:31.247Z,35.53
2023-05-12T17:28:32.663Z,35.77
2023-05-12T17:33:34.237Z,35.96
2023-05-12T17:38:35.610Z,35.75
2023-05-12T17:43:37.044Z,35.76
2023-05-12T17:48:38.660Z,35.94
2023-05-12T17:53:40.267Z,35.79
2023-05-12T17:58:41.971Z,35.75
2023-05-12T18:03:43.799Z,35.64
2023-05-12T18:08:46.418Z,35.38
2023-05-12T18:13:48.044Z,35.16
2023-05-12T18:18:49.513Z,35.03
2023-05-12T18:23:50.964Z,35.15
2023-05-12T18:28:52.331Z,35.33
2023-05-12T18:33:53.713Z,35.37
2023-05-12T18:38:55.079Z,35.44
2023-05-12T18:43:56.504Z,35.63
2023-05-12T18:48:57.900Z,36.03
2023-05-12T18:53:59.311Z,36.17
2023-05-12T18:59:00.928Z,35.98
2023-05-12T19:04:02.306Z,36.03
2023-05-12T19:09:04.794Z,36.28
2023-05-12T19:14:06.864Z,36.35
2023-05-12T19:19:08.390Z,36.53
2023-05-12T19:24:10.464Z,36.41
2023-05-12T19:29:11.965Z,36.55
2023-05-12T19:34:13.398Z,37.14
2023-05-12T19:39:14.829Z,37.08
2023-05-12T19:44:16.254Z,37.19
2023-05-12T19:49:17.697Z,37.27
2023-05-12T19:54:19.097Z,37.83
2023-05-12T19:59:20.545Z,37.76
2023-05-12T20:04:22.975Z,37.79
2023-05-12T20:09:27.099Z,37.93
2023-05-12T20:14:28.480Z,38.27
2023-05-12T20:19:29.892Z,38.26
2023-05-12T20:24:31.382Z,38.14
2023-05-12T20:29:32.759Z,38.23
2023-05-12T20:34:34.346Z,38.22
2023-05-12T20:39:35.731Z,38.49
2023-05-12T20:44:37.112Z,38.36
2023-05-12T20:49:38.932Z,38.46
2023-05-12T20:54:40.316Z,38.50
2023-05-12T20:59:41.703Z,38.40
2023-05-12T21:04:43.136Z,38.48
2023-05-12T21:09:44.572Z,38.13
2023-05-12T21:14:46.233Z,38.59
2023-05-12T21:19:47.669Z,38.67
2023-05-12T21:24:51.003Z,38.41
2023-05-12T21:29:53.066Z,38.65
2023-05-12T21:34:54.703Z,38.59
2023-05-12T21:39:56.086Z,38.59
2023-05-12T21:44:57.465Z,38.67
2023-05-12T21:49:59.062Z,38.71
2023-05-12T21:55:02.479Z,38.70
2023-05-12T22:00:05.744Z,38.73
2023-05-12T22:05:07.757Z,38.67
2023-05-12T22:10:09.550Z,38.49
2023-05-12T22:15:11.074Z,38.47
2023-05-12T22:20:12.929Z,38.59
2023-05-12T22:25:14.334Z,38.56
2023-05-12T22:30:15.775Z,38.71
2023-05-12T22:35:17.252Z,38.54
2023-05-12T22:40:21.145Z,38.54
2023-05-12T22:45:22.759Z,38.67
2023-05-12T22:50:24.271Z,38.38
2023-05-12T22:55:28.028Z,38.73
2023-05-12T23:00:29.443Z,38.78
2023-05-12T23:05:30.878Z,38.75
2023-05-12T23:10:32.330Z,38.62
2023-05-12T23:15:33.716Z,38.81
2023-05-12T23:20:35.487Z,38.78
2023-05-12T23:25:38.554Z,38.76
2023-05-12T23:30:39.970Z,38.79
2023-05-12T23:35:41.643Z,38.86
2023-05-12T23:40:43.019Z,38.54
2023-05-12T23:45:44.409Z,38.69
2023-05-12T23:50:45.792Z,38.32
2023-05-12T23:55:47.194Z,38.37
